MKJS 200800Z 13003KT 9999 FEW024 26/22 Q1008
MKJP 200800Z 33003KT 9999 FEW022 28/23 Q1008
MWCR 200300Z 06011KT 9999 FEW020 30/25 Q1009
MWCB 200000Z 05006KT 030V110 9999 BKN018CB 30/24 Q1008